sensor_id;sensor_type;location;lat;lon;timestamp;P1;durP1;ratioP1;P2;durP2;ratioP2
79052;SDS011;68451;49.510;6.026;2023-11-19T00:00:08;1.40;;;0.63;;
79052;SDS011;68451;49.510;6.026;2023-11-19T00:02:40;0.60;;;0.30;;
79052;SDS011;68451;49.510;6.026;2023-11-19T00:05:08;1.00;;;0.60;;
79052;SDS011;68451;49.510;6.026;2023-11-19T00:07:39;1.03;;;0.30;;
79052;SDS011;68451;49.510;6.026;2023-11-19T00:10:10;0.20;;;0.20;;
79052;SDS011;68451;49.510;6.026;2023-11-19T00:12:38;0.33;;;0.33;;
79052;SDS011;68451;49.510;6.026;2023-11-19T00:15:07;0.67;;;0.30;;
79052;SDS011;68451;49.510;6.026;2023-11-19T00:17:41;0.40;;;0.40;;
79052;SDS011;68451;49.510;6.026;2023-11-19T00:20:12;0.35;;;0.30;;
79052;SDS011;68451;49.510;6.026;2023-11-19T00:22:43;0.30;;;0.30;;
79052;SDS011;68451;49.510;6.026;2023-11-19T00:25:13;0.80;;;0.43;;
79052;SDS011;68451;49.510;6.026;2023-11-19T00:27:40;0.30;;;0.30;;
79052;SDS011;68451;49.510;6.026;2023-11-19T00:30:07;0.53;;;0.40;;
79052;SDS011;68451;49.510;6.026;2023-11-19T00:32:34;0.20;;;0.20;;
79052;SDS011;68451;49.510;6.026;2023-11-19T00:35:02;0.30;;;0.30;;
79052;SDS011;68451;49.510;6.026;2023-11-19T00:37:29;0.30;;;0.30;;
79052;SDS011;68451;49.510;6.026;2023-11-19T00:39:56;0.57;;;0.55;;
79052;SDS011;68451;49.510;6.026;2023-11-19T00:42:25;1.20;;;0.50;;
79052;SDS011;68451;49.510;6.026;2023-11-19T00:44:52;0.38;;;0.30;;
79052;SDS011;68451;49.510;6.026;2023-11-19T00:47:19;0.40;;;0.40;;
79052;SDS011;68451;49.510;6.026;2023-11-19T00:49:48;0.75;;;0.57;;
79052;SDS011;68451;49.510;6.026;2023-11-19T00:52:15;0.80;;;0.70;;
79052;SDS011;68451;49.510;6.026;2023-11-19T00:54:43;0.70;;;0.60;;
79052;SDS011;68451;49.510;6.026;2023-11-19T00:57:10;0.97;;;0.60;;
79052;SDS011;68451;49.510;6.026;2023-11-19T00:59:37;0.70;;;0.67;;
79052;SDS011;68451;49.510;6.026;2023-11-19T01:02:04;0.67;;;0.60;;
79052;SDS011;68451;49.510;6.026;2023-11-19T01:04:33;1.00;;;0.90;;
79052;SDS011;68451;49.510;6.026;2023-11-19T01:07:02;1.33;;;0.80;;
79052;SDS011;68451;49.510;6.026;2023-11-19T01:09:41;2.43;;;1.30;;
79052;SDS011;68451;49.510;6.026;2023-11-19T01:12:08;1.48;;;1.00;;
79052;SDS011;68451;49.510;6.026;2023-11-19T01:14:38;1.58;;;1.05;;
79052;SDS011;68451;49.510;6.026;2023-11-19T01:17:05;2.03;;;1.50;;
79052;SDS011;68451;49.510;6.026;2023-11-19T01:19:32;2.23;;;1.67;;
79052;SDS011;68451;49.510;6.026;2023-11-19T01:22:00;1.85;;;1.20;;
79052;SDS011;68451;49.510;6.026;2023-11-19T01:24:27;3.43;;;1.70;;
79052;SDS011;68451;49.510;6.026;2023-11-19T01:26:57;2.03;;;1.48;;
79052;SDS011;68451;49.510;6.026;2023-11-19T01:29:26;2.13;;;1.80;;
79052;SDS011;68451;49.510;6.026;2023-11-19T01:31:53;2.63;;;1.90;;
79052;SDS011;68451;49.510;6.026;2023-11-19T01:34:20;3.63;;;1.70;;
79052;SDS011;68451;49.510;6.026;2023-11-19T01:36:47;1.60;;;1.38;;
79052;SDS011;68451;49.510;6.026;2023-11-19T01:39:15;3.03;;;1.85;;
79052;SDS011;68451;49.510;6.026;2023-11-19T01:41:43;4.85;;;2.47;;
79052;SDS011;68451;49.510;6.026;2023-11-19T01:44:09;2.83;;;2.42;;
79052;SDS011;68451;49.510;6.026;2023-11-19T01:46:40;3.55;;;2.53;;
79052;SDS011;68451;49.510;6.026;2023-11-19T01:49:08;2.97;;;2.20;;
79052;SDS011;68451;49.510;6.026;2023-11-19T01:51:36;3.97;;;2.60;;
79052;SDS011;68451;49.510;6.026;2023-11-19T01:54:03;3.70;;;3.17;;
79052;SDS011;68451;49.510;6.026;2023-11-19T01:56:30;3.45;;;2.85;;
79052;SDS011;68451;49.510;6.026;2023-11-19T01:58:58;4.57;;;2.78;;
79052;SDS011;68451;49.510;6.026;2023-11-19T02:01:25;2.75;;;1.90;;
79052;SDS011;68451;49.510;6.026;2023-11-19T02:03:53;3.08;;;2.22;;
79052;SDS011;68451;49.510;6.026;2023-11-19T02:06:20;3.47;;;1.73;;
79052;SDS011;68451;49.510;6.026;2023-11-19T02:08:47;1.98;;;1.77;;
79052;SDS011;68451;49.510;6.026;2023-11-19T02:11:14;3.03;;;1.73;;
79052;SDS011;68451;49.510;6.026;2023-11-19T02:13:41;1.85;;;1.50;;
79052;SDS011;68451;49.510;6.026;2023-11-19T02:16:10;3.55;;;1.73;;
79052;SDS011;68451;49.510;6.026;2023-11-19T02:18:38;2.05;;;1.70;;
79052;SDS011;68451;49.510;6.026;2023-11-19T02:21:05;4.25;;;1.58;;
79052;SDS011;68451;49.510;6.026;2023-11-19T02:23:32;2.03;;;1.52;;
79052;SDS011;68451;49.510;6.026;2023-11-19T02:26:08;2.47;;;1.80;;
79052;SDS011;68451;49.510;6.026;2023-11-19T02:28:37;3.78;;;2.20;;
79052;SDS011;68451;49.510;6.026;2023-11-19T02:31:04;2.30;;;1.85;;
79052;SDS011;68451;49.510;6.026;2023-11-19T02:33:31;2.75;;;2.55;;
79052;SDS011;68451;49.510;6.026;2023-11-19T02:35:58;4.22;;;2.78;;
79052;SDS011;68451;49.510;6.026;2023-11-19T02:38:25;4.10;;;2.17;;
79052;SDS011;68451;49.510;6.026;2023-11-19T02:40:52;3.58;;;2.22;;
79052;SDS011;68451;49.510;6.026;2023-11-19T02:43:19;2.33;;;2.13;;
79052;SDS011;68451;49.510;6.026;2023-11-19T02:45:46;3.63;;;2.30;;
79052;SDS011;68451;49.510;6.026;2023-11-19T02:48:13;2.97;;;2.15;;
79052;SDS011;68451;49.510;6.026;2023-11-19T02:50:42;2.67;;;2.00;;
79052;SDS011;68451;49.510;6.026;2023-11-19T02:53:09;3.13;;;1.70;;
79052;SDS011;68451;49.510;6.026;2023-11-19T02:55:36;2.67;;;2.13;;
79052;SDS011;68451;49.510;6.026;2023-11-19T02:58:05;1.63;;;1.50;;
79052;SDS011;68451;49.510;6.026;2023-11-19T03:00:46;2.63;;;2.08;;
79052;SDS011;68451;49.510;6.026;2023-11-19T03:03:24;2.97;;;1.95;;
79052;SDS011;68451;49.510;6.026;2023-11-19T03:05:57;3.03;;;1.75;;
79052;SDS011;68451;49.510;6.026;2023-11-19T03:08:24;3.28;;;2.08;;
79052;SDS011;68451;49.510;6.026;2023-11-19T03:10:51;2.78;;;1.98;;
79052;SDS011;68451;49.510;6.026;2023-11-19T03:13:18;2.97;;;1.75;;
79052;SDS011;68451;49.510;6.026;2023-11-19T03:15:45;2.67;;;1.67;;
79052;SDS011;68451;49.510;6.026;2023-11-19T03:18:12;2.47;;;1.52;;
79052;SDS011;68451;49.510;6.026;2023-11-19T03:20:39;1.60;;;1.23;;
79052;SDS011;68451;49.510;6.026;2023-11-19T03:23:06;1.83;;;1.20;;
79052;SDS011;68451;49.510;6.026;2023-11-19T03:25:33;3.03;;;1.63;;
79052;SDS011;68451;49.510;6.026;2023-11-19T03:28:00;2.95;;;1.98;;
79052;SDS011;68451;49.510;6.026;2023-11-19T03:30:31;1.95;;;1.50;;
79052;SDS011;68451;49.510;6.026;2023-11-19T03:33:00;2.15;;;1.52;;
79052;SDS011;68451;49.510;6.026;2023-11-19T03:35:28;2.10;;;1.25;;
79052;SDS011;68451;49.510;6.026;2023-11-19T03:37:55;1.70;;;1.30;;
79052;SDS011;68451;49.510;6.026;2023-11-19T03:40:22;3.05;;;1.45;;
79052;SDS011;68451;49.510;6.026;2023-11-19T03:42:50;4.45;;;1.88;;
79052;SDS011;68451;49.510;6.026;2023-11-19T03:45:17;2.17;;;1.55;;
79052;SDS011;68451;49.510;6.026;2023-11-19T03:47:44;2.67;;;1.90;;
79052;SDS011;68451;49.510;6.026;2023-11-19T03:50:11;4.88;;;1.80;;
79052;SDS011;68451;49.510;6.026;2023-11-19T03:52:38;3.97;;;1.88;;
79052;SDS011;68451;49.510;6.026;2023-11-19T03:55:08;3.25;;;1.60;;
79052;SDS011;68451;49.510;6.026;2023-11-19T03:57:35;7.07;;;2.47;;
79052;SDS011;68451;49.510;6.026;2023-11-19T04:00:02;3.42;;;2.00;;
79052;SDS011;68451;49.510;6.026;2023-11-19T04:02:36;4.72;;;2.28;;
79052;SDS011;68451;49.510;6.026;2023-11-19T04:05:04;4.75;;;2.45;;
79052;SDS011;68451;49.510;6.026;2023-11-19T04:07:31;3.10;;;1.90;;
79052;SDS011;68451;49.510;6.026;2023-11-19T04:09:58;4.28;;;2.03;;
79052;SDS011;68451;49.510;6.026;2023-11-19T04:12:26;4.25;;;2.25;;
79052;SDS011;68451;49.510;6.026;2023-11-19T04:14:53;4.32;;;2.22;;
79052;SDS011;68451;49.510;6.026;2023-11-19T04:17:22;3.30;;;2.45;;
79052;SDS011;68451;49.510;6.026;2023-11-19T04:19:49;4.82;;;1.92;;
79052;SDS011;68451;49.510;6.026;2023-11-19T04:22:16;3.28;;;1.80;;
79052;SDS011;68451;49.510;6.026;2023-11-19T04:24:43;4.47;;;2.05;;
79052;SDS011;68451;49.510;6.026;2023-11-19T04:27:12;3.90;;;1.80;;
79052;SDS011;68451;49.510;6.026;2023-11-19T04:29:40;3.08;;;1.98;;
79052;SDS011;68451;49.510;6.026;2023-11-19T04:32:07;5.38;;;1.63;;
79052;SDS011;68451;49.510;6.026;2023-11-19T04:34:34;6.13;;;1.80;;
79052;SDS011;68451;49.510;6.026;2023-11-19T04:37:01;3.42;;;1.85;;
79052;SDS011;68451;49.510;6.026;2023-11-19T04:39:34;5.63;;;2.08;;
79052;SDS011;68451;49.510;6.026;2023-11-19T04:42:01;4.53;;;1.75;;
79052;SDS011;68451;49.510;6.026;2023-11-19T04:44:28;3.88;;;2.47;;
79052;SDS011;68451;49.510;6.026;2023-11-19T04:46:56;5.90;;;1.80;;
79052;SDS011;68451;49.510;6.026;2023-11-19T04:49:24;6.00;;;1.83;;
79052;SDS011;68451;49.510;6.026;2023-11-19T04:51:53;5.53;;;2.78;;
79052;SDS011;68451;49.510;6.026;2023-11-19T04:54:20;7.25;;;2.15;;
79052;SDS011;68451;49.510;6.026;2023-11-19T04:56:47;5.72;;;1.83;;
79052;SDS011;68451;49.510;6.026;2023-11-19T04:59:15;4.18;;;1.70;;
79052;SDS011;68451;49.510;6.026;2023-11-19T05:04:17;4.53;;;2.13;;
79052;SDS011;68451;49.510;6.026;2023-11-19T05:06:45;3.60;;;2.25;;
79052;SDS011;68451;49.510;6.026;2023-11-19T05:09:12;2.25;;;1.60;;
79052;SDS011;68451;49.510;6.026;2023-11-19T05:11:40;5.40;;;2.70;;
79052;SDS011;68451;49.510;6.026;2023-11-19T05:14:09;4.25;;;1.83;;
79052;SDS011;68451;49.510;6.026;2023-11-19T05:16:37;3.58;;;1.58;;
79052;SDS011;68451;49.510;6.026;2023-11-19T05:19:06;2.47;;;1.85;;
79052;SDS011;68451;49.510;6.026;2023-11-19T05:21:33;5.10;;;2.08;;
79052;SDS011;68451;49.510;6.026;2023-11-19T05:24:01;2.40;;;1.63;;
79052;SDS011;68451;49.510;6.026;2023-11-19T05:26:30;4.43;;;2.08;;
79052;SDS011;68451;49.510;6.026;2023-11-19T05:28:58;3.65;;;1.70;;
79052;SDS011;68451;49.510;6.026;2023-11-19T05:31:24;4.22;;;2.20;;
79052;SDS011;68451;49.510;6.026;2023-11-19T05:33:51;6.30;;;2.42;;
79052;SDS011;68451;49.510;6.026;2023-11-19T05:36:18;8.00;;;2.80;;
79052;SDS011;68451;49.510;6.026;2023-11-19T05:38:45;8.73;;;2.25;;
79052;SDS011;68451;49.510;6.026;2023-11-19T05:41:12;3.17;;;1.95;;
79052;SDS011;68451;49.510;6.026;2023-11-19T05:43:39;3.50;;;1.90;;
79052;SDS011;68451;49.510;6.026;2023-11-19T05:46:07;4.07;;;1.98;;
79052;SDS011;68451;49.510;6.026;2023-11-19T05:48:38;6.13;;;2.08;;
79052;SDS011;68451;49.510;6.026;2023-11-19T05:51:05;6.03;;;2.50;;
79052;SDS011;68451;49.510;6.026;2023-11-19T05:53:32;7.30;;;2.38;;
79052;SDS011;68451;49.510;6.026;2023-11-19T05:55:58;4.85;;;1.80;;
79052;SDS011;68451;49.510;6.026;2023-11-19T05:58:30;7.32;;;2.33;;
79052;SDS011;68451;49.510;6.026;2023-11-19T06:00:57;5.70;;;2.97;;
79052;SDS011;68451;49.510;6.026;2023-11-19T06:03:24;8.65;;;2.47;;
79052;SDS011;68451;49.510;6.026;2023-11-19T06:05:51;7.28;;;2.10;;
79052;SDS011;68451;49.510;6.026;2023-11-19T06:08:18;5.28;;;1.70;;
79052;SDS011;68451;49.510;6.026;2023-11-19T06:10:47;2.95;;;1.73;;
79052;SDS011;68451;49.510;6.026;2023-11-19T06:13:16;6.03;;;2.15;;
79052;SDS011;68451;49.510;6.026;2023-11-19T06:15:43;5.70;;;1.70;;
79052;SDS011;68451;49.510;6.026;2023-11-19T06:18:10;5.57;;;1.88;;
79052;SDS011;68451;49.510;6.026;2023-11-19T06:20:41;5.65;;;1.90;;
79052;SDS011;68451;49.510;6.026;2023-11-19T06:23:09;4.65;;;1.52;;
79052;SDS011;68451;49.510;6.026;2023-11-19T06:25:36;3.45;;;1.30;;
79052;SDS011;68451;49.510;6.026;2023-11-19T06:28:03;4.18;;;1.70;;
79052;SDS011;68451;49.510;6.026;2023-11-19T06:30:30;8.30;;;1.65;;
79052;SDS011;68451;49.510;6.026;2023-11-19T06:32:59;3.40;;;1.95;;
79052;SDS011;68451;49.510;6.026;2023-11-19T06:35:27;4.38;;;1.55;;
79052;SDS011;68451;49.510;6.026;2023-11-19T06:37:56;2.55;;;1.48;;
79052;SDS011;68451;49.510;6.026;2023-11-19T06:40:23;4.68;;;2.35;;
79052;SDS011;68451;49.510;6.026;2023-11-19T06:42:50;2.83;;;1.80;;
79052;SDS011;68451;49.510;6.026;2023-11-19T06:45:18;4.15;;;1.60;;
79052;SDS011;68451;49.510;6.026;2023-11-19T06:47:45;3.67;;;1.50;;
79052;SDS011;68451;49.510;6.026;2023-11-19T06:50:12;5.45;;;1.60;;
79052;SDS011;68451;49.510;6.026;2023-11-19T06:52:39;4.30;;;1.48;;
79052;SDS011;68451;49.510;6.026;2023-11-19T06:55:06;3.65;;;1.85;;
79052;SDS011;68451;49.510;6.026;2023-11-19T06:57:34;3.15;;;1.55;;
79052;SDS011;68451;49.510;6.026;2023-11-19T07:00:01;7.13;;;2.80;;
79052;SDS011;68451;49.510;6.026;2023-11-19T07:02:29;5.93;;;1.60;;
79052;SDS011;68451;49.510;6.026;2023-11-19T07:04:57;6.93;;;1.50;;
79052;SDS011;68451;49.510;6.026;2023-11-19T07:07:24;5.50;;;1.67;;
79052;SDS011;68451;49.510;6.026;2023-11-19T07:09:50;5.75;;;1.60;;
79052;SDS011;68451;49.510;6.026;2023-11-19T07:12:17;7.13;;;2.25;;
79052;SDS011;68451;49.510;6.026;2023-11-19T07:14:44;3.75;;;1.73;;
79052;SDS011;68451;49.510;6.026;2023-11-19T07:17:11;4.55;;;1.60;;
79052;SDS011;68451;49.510;6.026;2023-11-19T07:19:38;1.88;;;1.30;;
79052;SDS011;68451;49.510;6.026;2023-11-19T07:22:05;2.38;;;1.52;;
79052;SDS011;68451;49.510;6.026;2023-11-19T07:24:33;3.70;;;1.98;;
79052;SDS011;68451;49.510;6.026;2023-11-19T07:27:00;6.72;;;2.60;;
79052;SDS011;68451;49.510;6.026;2023-11-19T07:29:29;5.15;;;1.55;;
79052;SDS011;68451;49.510;6.026;2023-11-19T07:31:58;2.38;;;1.35;;
79052;SDS011;68451;49.510;6.026;2023-11-19T07:34:25;3.70;;;1.98;;
79052;SDS011;68451;49.510;6.026;2023-11-19T07:36:51;5.45;;;1.70;;
79052;SDS011;68451;49.510;6.026;2023-11-19T07:39:19;9.40;;;1.80;;
79052;SDS011;68451;49.510;6.026;2023-11-19T07:41:47;4.55;;;2.55;;
79052;SDS011;68451;49.510;6.026;2023-11-19T07:44:14;5.53;;;1.83;;
79052;SDS011;68451;49.510;6.026;2023-11-19T07:46:41;2.97;;;2.03;;
79052;SDS011;68451;49.510;6.026;2023-11-19T07:49:09;4.32;;;2.10;;
79052;SDS011;68451;49.510;6.026;2023-11-19T07:51:36;4.75;;;1.83;;
79052;SDS011;68451;49.510;6.026;2023-11-19T07:54:03;5.88;;;1.95;;
79052;SDS011;68451;49.510;6.026;2023-11-19T07:56:31;4.85;;;1.52;;
79052;SDS011;68451;49.510;6.026;2023-11-19T07:59:01;11.57;;;2.47;;
79052;SDS011;68451;49.510;6.026;2023-11-19T08:01:31;6.28;;;1.73;;
79052;SDS011;68451;49.510;6.026;2023-11-19T08:03:58;4.82;;;1.58;;
79052;SDS011;68451;49.510;6.026;2023-11-19T08:06:26;2.67;;;1.48;;
79052;SDS011;68451;49.510;6.026;2023-11-19T08:08:53;6.00;;;1.73;;
79052;SDS011;68451;49.510;6.026;2023-11-19T08:11:20;2.45;;;1.35;;
79052;SDS011;68451;49.510;6.026;2023-11-19T08:13:46;4.07;;;2.00;;
79052;SDS011;68451;49.510;6.026;2023-11-19T08:16:14;4.63;;;2.03;;
79052;SDS011;68451;49.510;6.026;2023-11-19T08:18:44;4.20;;;1.42;;
79052;SDS011;68451;49.510;6.026;2023-11-19T08:21:11;3.30;;;1.50;;
79052;SDS011;68451;49.510;6.026;2023-11-19T08:23:38;4.50;;;1.73;;
79052;SDS011;68451;49.510;6.026;2023-11-19T08:26:05;5.07;;;1.58;;
79052;SDS011;68451;49.510;6.026;2023-11-19T08:28:33;4.45;;;1.48;;
79052;SDS011;68451;49.510;6.026;2023-11-19T08:31:01;2.88;;;1.92;;
79052;SDS011;68451;49.510;6.026;2023-11-19T08:33:31;3.13;;;1.20;;
79052;SDS011;68451;49.510;6.026;2023-11-19T08:35:58;7.78;;;1.88;;
79052;SDS011;68451;49.510;6.026;2023-11-19T08:38:25;5.20;;;1.73;;
79052;SDS011;68451;49.510;6.026;2023-11-19T08:40:55;5.20;;;1.90;;
79052;SDS011;68451;49.510;6.026;2023-11-19T08:43:26;4.50;;;2.00;;
79052;SDS011;68451;49.510;6.026;2023-11-19T08:45:53;4.97;;;1.67;;
79052;SDS011;68451;49.510;6.026;2023-11-19T08:48:20;6.05;;;1.85;;
79052;SDS011;68451;49.510;6.026;2023-11-19T08:50:47;5.57;;;2.20;;
79052;SDS011;68451;49.510;6.026;2023-11-19T08:53:14;6.93;;;2.80;;
79052;SDS011;68451;49.510;6.026;2023-11-19T08:55:41;4.78;;;2.13;;
79052;SDS011;68451;49.510;6.026;2023-11-19T08:58:08;6.10;;;1.83;;
79052;SDS011;68451;49.510;6.026;2023-11-19T09:00:35;3.97;;;2.28;;
79052;SDS011;68451;49.510;6.026;2023-11-19T09:03:02;5.28;;;1.98;;
79052;SDS011;68451;49.510;6.026;2023-11-19T09:05:30;9.32;;;3.38;;
79052;SDS011;68451;49.510;6.026;2023-11-19T09:07:58;5.25;;;2.75;;
79052;SDS011;68451;49.510;6.026;2023-11-19T09:10:24;11.43;;;2.80;;
79052;SDS011;68451;49.510;6.026;2023-11-19T09:12:53;4.80;;;2.17;;
79052;SDS011;68451;49.510;6.026;2023-11-19T09:15:24;11.23;;;4.10;;
79052;SDS011;68451;49.510;6.026;2023-11-19T09:17:50;6.60;;;2.78;;
79052;SDS011;68451;49.510;6.026;2023-11-19T09:20:17;7.28;;;2.90;;
79052;SDS011;68451;49.510;6.026;2023-11-19T09:22:44;7.82;;;2.60;;
79052;SDS011;68451;49.510;6.026;2023-11-19T09:25:11;10.43;;;2.78;;
79052;SDS011;68451;49.510;6.026;2023-11-19T09:27:43;12.82;;;2.95;;
79052;SDS011;68451;49.510;6.026;2023-11-19T09:30:10;10.75;;;3.08;;
79052;SDS011;68451;49.510;6.026;2023-11-19T09:32:38;7.55;;;2.67;;
79052;SDS011;68451;49.510;6.026;2023-11-19T09:35:05;12.13;;;3.00;;
79052;SDS011;68451;49.510;6.026;2023-11-19T09:37:33;13.05;;;3.33;;
79052;SDS011;68451;49.510;6.026;2023-11-19T09:40:00;10.13;;;2.92;;
79052;SDS011;68451;49.510;6.026;2023-11-19T09:42:27;11.93;;;3.53;;
79052;SDS011;68451;49.510;6.026;2023-11-19T09:44:54;7.90;;;2.75;;
79052;SDS011;68451;49.510;6.026;2023-11-19T09:47:23;12.88;;;3.17;;
79052;SDS011;68451;49.510;6.026;2023-11-19T09:49:52;6.88;;;2.70;;
79052;SDS011;68451;49.510;6.026;2023-11-19T09:52:23;13.63;;;3.10;;
79052;SDS011;68451;49.510;6.026;2023-11-19T09:54:51;6.93;;;2.63;;
79052;SDS011;68451;49.510;6.026;2023-11-19T09:57:18;8.13;;;2.20;;
79052;SDS011;68451;49.510;6.026;2023-11-19T09:59:45;10.02;;;3.10;;
79052;SDS011;68451;49.510;6.026;2023-11-19T10:02:14;13.65;;;2.85;;
79052;SDS011;68451;49.510;6.026;2023-11-19T10:04:41;10.32;;;2.58;;
79052;SDS011;68451;49.510;6.026;2023-11-19T10:07:11;6.93;;;2.00;;
79052;SDS011;68451;49.510;6.026;2023-11-19T10:09:38;5.43;;;2.13;;
79052;SDS011;68451;49.510;6.026;2023-11-19T10:12:05;7.90;;;1.90;;
79052;SDS011;68451;49.510;6.026;2023-11-19T10:14:32;5.95;;;2.75;;
79052;SDS011;68451;49.510;6.026;2023-11-19T10:17:03;6.43;;;2.15;;
79052;SDS011;68451;49.510;6.026;2023-11-19T10:19:31;6.57;;;2.10;;
79052;SDS011;68451;49.510;6.026;2023-11-19T10:22:02;7.38;;;2.25;;
79052;SDS011;68451;49.510;6.026;2023-11-19T10:27:06;6.45;;;2.28;;
79052;SDS011;68451;49.510;6.026;2023-11-19T10:29:38;5.05;;;2.08;;
79052;SDS011;68451;49.510;6.026;2023-11-19T10:32:05;8.63;;;2.72;;
79052;SDS011;68451;49.510;6.026;2023-11-19T10:34:52;9.82;;;2.75;;
79052;SDS011;68451;49.510;6.026;2023-11-19T10:37:28;11.20;;;2.53;;
79052;SDS011;68451;49.510;6.026;2023-11-19T10:40:02;8.48;;;3.00;;
79052;SDS011;68451;49.510;6.026;2023-11-19T10:42:31;6.63;;;2.20;;
79052;SDS011;68451;49.510;6.026;2023-11-19T10:44:58;9.40;;;2.38;;
79052;SDS011;68451;49.510;6.026;2023-11-19T10:47:25;2.78;;;1.65;;
79052;SDS011;68451;49.510;6.026;2023-11-19T10:49:55;5.38;;;1.80;;
79052;SDS011;68451;49.510;6.026;2023-11-19T10:52:22;4.13;;;1.77;;
79052;SDS011;68451;49.510;6.026;2023-11-19T10:54:51;7.97;;;2.20;;
79052;SDS011;68451;49.510;6.026;2023-11-19T10:57:20;5.00;;;2.10;;
79052;SDS011;68451;49.510;6.026;2023-11-19T10:59:55;7.57;;;2.83;;
79052;SDS011;68451;49.510;6.026;2023-11-19T11:02:28;8.73;;;3.08;;
79052;SDS011;68451;49.510;6.026;2023-11-19T11:05:01;10.32;;;2.90;;
79052;SDS011;68451;49.510;6.026;2023-11-19T11:07:29;11.70;;;3.40;;
79052;SDS011;68451;49.510;6.026;2023-11-19T11:10:06;6.88;;;2.47;;
79052;SDS011;68451;49.510;6.026;2023-11-19T11:12:36;7.25;;;2.25;;
79052;SDS011;68451;49.510;6.026;2023-11-19T11:15:04;6.32;;;2.10;;
79052;SDS011;68451;49.510;6.026;2023-11-19T11:17:33;7.80;;;2.63;;
79052;SDS011;68451;49.510;6.026;2023-11-19T11:20:01;8.20;;;2.20;;
79052;SDS011;68451;49.510;6.026;2023-11-19T11:22:29;5.68;;;2.17;;
79052;SDS011;68451;49.510;6.026;2023-11-19T11:28:12;7.97;;;2.33;;
79052;SDS011;68451;49.510;6.026;2023-11-19T11:30:58;8.18;;;2.80;;
79052;SDS011;68451;49.510;6.026;2023-11-19T11:39:50;5.32;;;2.20;;
79052;SDS011;68451;49.510;6.026;2023-11-19T11:45:04;4.95;;;1.98;;
79052;SDS011;68451;49.510;6.026;2023-11-19T11:50:13;6.45;;;2.50;;
79052;SDS011;68451;49.510;6.026;2023-11-19T11:55:36;6.78;;;2.63;;
79052;SDS011;68451;49.510;6.026;2023-11-19T11:58:08;8.43;;;3.00;;
79052;SDS011;68451;49.510;6.026;2023-11-19T12:00:39;8.88;;;2.33;;
79052;SDS011;68451;49.510;6.026;2023-11-19T12:03:07;7.05;;;1.90;;
79052;SDS011;68451;49.510;6.026;2023-11-19T12:05:41;9.57;;;2.53;;
79052;SDS011;68451;49.510;6.026;2023-11-19T12:08:13;9.13;;;2.55;;
79052;SDS011;68451;49.510;6.026;2023-11-19T12:13:15;9.77;;;2.38;;
79052;SDS011;68451;49.510;6.026;2023-11-19T12:18:31;10.20;;;2.45;;
79052;SDS011;68451;49.510;6.026;2023-11-19T12:20:59;6.72;;;2.40;;
79052;SDS011;68451;49.510;6.026;2023-11-19T12:23:28;6.65;;;2.65;;
79052;SDS011;68451;49.510;6.026;2023-11-19T12:25:56;6.45;;;2.38;;
79052;SDS011;68451;49.510;6.026;2023-11-19T12:28:24;4.00;;;1.50;;
79052;SDS011;68451;49.510;6.026;2023-11-19T12:30:53;9.15;;;2.08;;
79052;SDS011;68451;49.510;6.026;2023-11-19T12:33:20;6.60;;;2.55;;
79052;SDS011;68451;49.510;6.026;2023-11-19T12:35:47;5.25;;;1.90;;
79052;SDS011;68451;49.510;6.026;2023-11-19T12:38:21;6.53;;;2.45;;
79052;SDS011;68451;49.510;6.026;2023-11-19T12:41:04;8.13;;;2.22;;
79052;SDS011;68451;49.510;6.026;2023-11-19T12:43:37;5.95;;;2.40;;
79052;SDS011;68451;49.510;6.026;2023-11-19T12:46:20;5.03;;;1.85;;
79052;SDS011;68451;49.510;6.026;2023-11-19T12:48:48;11.30;;;2.25;;
79052;SDS011;68451;49.510;6.026;2023-11-19T12:51:16;4.82;;;1.85;;
79052;SDS011;68451;49.510;6.026;2023-11-19T12:53:47;4.97;;;1.98;;
79052;SDS011;68451;49.510;6.026;2023-11-19T12:56:16;7.18;;;2.72;;
79052;SDS011;68451;49.510;6.026;2023-11-19T12:58:43;7.20;;;1.95;;
79052;SDS011;68451;49.510;6.026;2023-11-19T13:01:10;4.32;;;1.95;;
79052;SDS011;68451;49.510;6.026;2023-11-19T13:03:42;4.10;;;1.88;;
79052;SDS011;68451;49.510;6.026;2023-11-19T13:06:10;8.55;;;2.22;;
79052;SDS011;68451;49.510;6.026;2023-11-19T13:08:49;4.45;;;1.75;;
79052;SDS011;68451;49.510;6.026;2023-11-19T13:11:32;4.03;;;2.33;;
79052;SDS011;68451;49.510;6.026;2023-11-19T13:14:01;7.25;;;2.58;;
79052;SDS011;68451;49.510;6.026;2023-11-19T13:16:31;5.60;;;2.27;;
79052;SDS011;68451;49.510;6.026;2023-11-19T13:18:59;4.25;;;1.52;;
79052;SDS011;68451;49.510;6.026;2023-11-19T13:21:29;6.20;;;2.17;;
79052;SDS011;68451;49.510;6.026;2023-11-19T13:23:56;9.05;;;2.15;;
79052;SDS011;68451;49.510;6.026;2023-11-19T13:26:23;4.72;;;1.48;;
79052;SDS011;68451;49.510;6.026;2023-11-19T13:28:50;2.53;;;1.85;;
79052;SDS011;68451;49.510;6.026;2023-11-19T13:31:18;8.23;;;2.22;;
79052;SDS011;68451;49.510;6.026;2023-11-19T13:33:45;6.20;;;2.10;;
79052;SDS011;68451;49.510;6.026;2023-11-19T13:36:12;6.68;;;2.13;;
79052;SDS011;68451;49.510;6.026;2023-11-19T13:38:42;7.93;;;3.22;;
79052;SDS011;68451;49.510;6.026;2023-11-19T13:41:11;7.68;;;2.63;;
79052;SDS011;68451;49.510;6.026;2023-11-19T13:43:39;8.55;;;2.95;;
79052;SDS011;68451;49.510;6.026;2023-11-19T13:46:06;8.52;;;3.00;;
79052;SDS011;68451;49.510;6.026;2023-11-19T13:48:36;7.40;;;2.75;;
79052;SDS011;68451;49.510;6.026;2023-11-19T13:51:04;13.38;;;3.53;;
79052;SDS011;68451;49.510;6.026;2023-11-19T13:53:31;11.00;;;3.47;;
79052;SDS011;68451;49.510;6.026;2023-11-19T13:56:17;9.68;;;2.90;;
79052;SDS011;68451;49.510;6.026;2023-11-19T13:58:44;9.38;;;2.30;;
79052;SDS011;68451;49.510;6.026;2023-11-19T14:01:11;5.90;;;2.35;;
79052;SDS011;68451;49.510;6.026;2023-11-19T14:03:39;7.38;;;2.70;;
79052;SDS011;68451;49.510;6.026;2023-11-19T14:06:08;7.00;;;2.78;;
79052;SDS011;68451;49.510;6.026;2023-11-19T14:08:36;7.85;;;3.22;;
79052;SDS011;68451;49.510;6.026;2023-11-19T14:11:03;9.75;;;3.00;;
79052;SDS011;68451;49.510;6.026;2023-11-19T14:13:30;7.57;;;2.55;;
79052;SDS011;68451;49.510;6.026;2023-11-19T14:15:57;15.80;;;2.35;;
79052;SDS011;68451;49.510;6.026;2023-11-19T14:18:24;10.13;;;3.08;;
79052;SDS011;68451;49.510;6.026;2023-11-19T14:20:51;10.43;;;3.45;;
79052;SDS011;68451;49.510;6.026;2023-11-19T14:23:18;7.68;;;2.70;;
79052;SDS011;68451;49.510;6.026;2023-11-19T14:25:45;7.15;;;2.53;;
79052;SDS011;68451;49.510;6.026;2023-11-19T14:28:12;8.30;;;3.03;;
79052;SDS011;68451;49.510;6.026;2023-11-19T14:30:38;14.07;;;4.68;;
79052;SDS011;68451;49.510;6.026;2023-11-19T14:33:08;9.45;;;3.30;;
79052;SDS011;68451;49.510;6.026;2023-11-19T14:35:35;6.43;;;2.17;;
79052;SDS011;68451;49.510;6.026;2023-11-19T14:38:02;7.70;;;3.40;;
79052;SDS011;68451;49.510;6.026;2023-11-19T14:40:31;5.68;;;2.35;;
79052;SDS011;68451;49.510;6.026;2023-11-19T14:43:01;9.82;;;3.13;;
79052;SDS011;68451;49.510;6.026;2023-11-19T14:45:28;6.50;;;2.88;;
79052;SDS011;68451;49.510;6.026;2023-11-19T14:48:04;11.77;;;3.03;;
79052;SDS011;68451;49.510;6.026;2023-11-19T14:50:31;7.75;;;2.70;;
79052;SDS011;68451;49.510;6.026;2023-11-19T14:52:58;8.70;;;2.92;;
79052;SDS011;68451;49.510;6.026;2023-11-19T14:55:25;7.05;;;2.20;;
79052;SDS011;68451;49.510;6.026;2023-11-19T14:57:53;9.20;;;2.33;;
79052;SDS011;68451;49.510;6.026;2023-11-19T15:00:33;12.75;;;2.95;;
79052;SDS011;68451;49.510;6.026;2023-11-19T15:03:00;9.77;;;3.33;;
79052;SDS011;68451;49.510;6.026;2023-11-19T15:05:27;8.85;;;2.40;;
79052;SDS011;68451;49.510;6.026;2023-11-19T15:07:56;7.85;;;2.67;;
79052;SDS011;68451;49.510;6.026;2023-11-19T15:10:22;10.85;;;3.67;;
79052;SDS011;68451;49.510;6.026;2023-11-19T15:12:51;8.02;;;2.78;;
79052;SDS011;68451;49.510;6.026;2023-11-19T15:15:20;15.15;;;3.10;;
79052;SDS011;68451;49.510;6.026;2023-11-19T15:17:50;6.72;;;2.55;;
79052;SDS011;68451;49.510;6.026;2023-11-19T15:20:17;8.38;;;2.70;;